sensor_id;sensor_type;location;lat;lon;timestamp;P1;durP1;ratioP1;P2;durP2;ratioP2
76167;SDS011;64927;48.214;16.378;2024-02-14T00:01:41;2.33;;;1.20;;
76167;SDS011;64927;48.214;16.378;2024-02-14T00:04:08;3.55;;;1.05;;
76167;SDS011;64927;48.214;16.378;2024-02-14T00:06:36;2.15;;;1.27;;
76167;SDS011;64927;48.214;16.378;2024-02-14T00:09:02;2.42;;;0.95;;
76167;SDS011;64927;48.214;16.378;2024-02-14T00:11:28;1.55;;;1.08;;
76167;SDS011;64927;48.214;16.378;2024-02-14T00:13:54;1.85;;;1.08;;
76167;SDS011;64927;48.214;16.378;2024-02-14T00:16:21;1.35;;;0.88;;
76167;SDS011;64927;48.214;16.378;2024-02-14T00:18:47;5.03;;;1.85;;
76167;SDS011;64927;48.214;16.378;2024-02-14T00:21:15;1.20;;;1.10;;
76167;SDS011;64927;48.214;16.378;2024-02-14T00:23:44;3.95;;;1.25;;
76167;SDS011;64927;48.214;16.378;2024-02-14T00:26:10;3.40;;;1.55;;
76167;SDS011;64927;48.214;16.378;2024-02-14T00:28:38;5.90;;;2.00;;
76167;SDS011;64927;48.214;16.378;2024-02-14T00:31:04;2.92;;;1.27;;
76167;SDS011;64927;48.214;16.378;2024-02-14T00:33:31;4.00;;;1.85;;
76167;SDS011;64927;48.214;16.378;2024-02-14T00:35:56;2.35;;;1.30;;
76167;SDS011;64927;48.214;16.378;2024-02-14T00:38:22;4.15;;;1.75;;
76167;SDS011;64927;48.214;16.378;2024-02-14T00:40:48;4.18;;;1.92;;
76167;SDS011;64927;48.214;16.378;2024-02-14T00:43:15;3.83;;;1.73;;
76167;SDS011;64927;48.214;16.378;2024-02-14T00:45:41;2.85;;;1.77;;
76167;SDS011;64927;48.214;16.378;2024-02-14T00:48:07;3.72;;;2.28;;
76167;SDS011;64927;48.214;16.378;2024-02-14T00:50:33;2.05;;;1.33;;
76167;SDS011;64927;48.214;16.378;2024-02-14T00:52:59;2.65;;;1.58;;
76167;SDS011;64927;48.214;16.378;2024-02-14T00:55:25;2.40;;;1.50;;
76167;SDS011;64927;48.214;16.378;2024-02-14T00:57:51;3.38;;;1.75;;
76167;SDS011;64927;48.214;16.378;2024-02-14T01:00:19;2.40;;;1.88;;
76167;SDS011;64927;48.214;16.378;2024-02-14T01:02:44;2.13;;;1.40;;
76167;SDS011;64927;48.214;16.378;2024-02-14T01:05:10;4.15;;;1.20;;
76167;SDS011;64927;48.214;16.378;2024-02-14T01:07:36;1.95;;;1.45;;
76167;SDS011;64927;48.214;16.378;2024-02-14T01:10:01;1.83;;;1.40;;
76167;SDS011;64927;48.214;16.378;2024-02-14T01:12:28;6.85;;;1.95;;
76167;SDS011;64927;48.214;16.378;2024-02-14T01:14:56;4.43;;;1.77;;
76167;SDS011;64927;48.214;16.378;2024-02-14T01:17:22;4.68;;;2.25;;
76167;SDS011;64927;48.214;16.378;2024-02-14T01:19:48;3.88;;;1.55;;
76167;SDS011;64927;48.214;16.378;2024-02-14T01:22:16;2.20;;;1.23;;
76167;SDS011;64927;48.214;16.378;2024-02-14T01:24:43;2.47;;;1.48;;
76167;SDS011;64927;48.214;16.378;2024-02-14T01:27:09;2.00;;;1.35;;
76167;SDS011;64927;48.214;16.378;2024-02-14T01:29:34;2.40;;;1.60;;
76167;SDS011;64927;48.214;16.378;2024-02-14T01:32:00;4.70;;;2.70;;
76167;SDS011;64927;48.214;16.378;2024-02-14T01:34:29;2.42;;;1.60;;
76167;SDS011;64927;48.214;16.378;2024-02-14T01:36:55;3.58;;;2.25;;
76167;SDS011;64927;48.214;16.378;2024-02-14T01:39:20;2.75;;;1.50;;
76167;SDS011;64927;48.214;16.378;2024-02-14T01:41:47;2.42;;;1.83;;
76167;SDS011;64927;48.214;16.378;2024-02-14T01:44:13;2.60;;;1.70;;
76167;SDS011;64927;48.214;16.378;2024-02-14T01:46:43;4.45;;;1.80;;
76167;SDS011;64927;48.214;16.378;2024-02-14T01:49:12;8.13;;;1.60;;
76167;SDS011;64927;48.214;16.378;2024-02-14T01:51:40;2.97;;;1.60;;
76167;SDS011;64927;48.214;16.378;2024-02-14T01:54:10;6.60;;;2.33;;
76167;SDS011;64927;48.214;16.378;2024-02-14T01:56:37;4.47;;;1.95;;
76167;SDS011;64927;48.214;16.378;2024-02-14T01:59:04;5.82;;;2.33;;
76167;SDS011;64927;48.214;16.378;2024-02-14T02:01:33;3.78;;;2.35;;
76167;SDS011;64927;48.214;16.378;2024-02-14T02:04:00;3.45;;;1.70;;
76167;SDS011;64927;48.214;16.378;2024-02-14T02:06:26;1.98;;;1.67;;
76167;SDS011;64927;48.214;16.378;2024-02-14T02:08:53;3.03;;;1.75;;
76167;SDS011;64927;48.214;16.378;2024-02-14T02:11:21;12.63;;;2.17;;
76167;SDS011;64927;48.214;16.378;2024-02-14T02:13:47;3.03;;;1.80;;
76167;SDS011;64927;48.214;16.378;2024-02-14T02:16:13;2.80;;;1.92;;
76167;SDS011;64927;48.214;16.378;2024-02-14T02:18:40;3.38;;;1.85;;
76167;SDS011;64927;48.214;16.378;2024-02-14T02:21:05;2.95;;;1.50;;
76167;SDS011;64927;48.214;16.378;2024-02-14T02:23:34;2.63;;;1.73;;
76167;SDS011;64927;48.214;16.378;2024-02-14T02:26:00;2.42;;;1.90;;
76167;SDS011;64927;48.214;16.378;2024-02-14T02:28:28;6.57;;;2.10;;
76167;SDS011;64927;48.214;16.378;2024-02-14T02:30:54;2.85;;;1.98;;
76167;SDS011;64927;48.214;16.378;2024-02-14T02:33:22;2.67;;;1.60;;
76167;SDS011;64927;48.214;16.378;2024-02-14T02:35:49;3.60;;;2.03;;
76167;SDS011;64927;48.214;16.378;2024-02-14T02:38:18;3.42;;;1.70;;
76167;SDS011;64927;48.214;16.378;2024-02-14T02:40:46;2.58;;;1.95;;
76167;SDS011;64927;48.214;16.378;2024-02-14T02:43:15;3.40;;;1.77;;
76167;SDS011;64927;48.214;16.378;2024-02-14T02:45:40;3.03;;;1.85;;
76167;SDS011;64927;48.214;16.378;2024-02-14T02:48:07;2.53;;;1.95;;
76167;SDS011;64927;48.214;16.378;2024-02-14T02:50:32;2.38;;;1.63;;
76167;SDS011;64927;48.214;16.378;2024-02-14T02:52:58;3.63;;;2.00;;
76167;SDS011;64927;48.214;16.378;2024-02-14T02:55:24;6.05;;;2.05;;
76167;SDS011;64927;48.214;16.378;2024-02-14T02:57:51;3.78;;;2.00;;
76167;SDS011;64927;48.214;16.378;2024-02-14T03:00:18;3.00;;;1.88;;
76167;SDS011;64927;48.214;16.378;2024-02-14T03:02:48;4.20;;;1.67;;
76167;SDS011;64927;48.214;16.378;2024-02-14T03:05:14;3.22;;;2.17;;
76167;SDS011;64927;48.214;16.378;2024-02-14T03:07:48;2.05;;;1.33;;
76167;SDS011;64927;48.214;16.378;2024-02-14T03:10:15;1.83;;;1.23;;
76167;SDS011;64927;48.214;16.378;2024-02-14T03:12:47;4.47;;;2.10;;
76167;SDS011;64927;48.214;16.378;2024-02-14T03:15:16;2.38;;;1.58;;
76167;SDS011;64927;48.214;16.378;2024-02-14T03:17:42;2.40;;;1.52;;
76167;SDS011;64927;48.214;16.378;2024-02-14T03:20:08;2.35;;;1.70;;
76167;SDS011;64927;48.214;16.378;2024-02-14T03:22:42;11.63;;;1.75;;
76167;SDS011;64927;48.214;16.378;2024-02-14T03:25:12;1.85;;;1.30;;
76167;SDS011;64927;48.214;16.378;2024-02-14T03:27:41;2.13;;;1.40;;
76167;SDS011;64927;48.214;16.378;2024-02-14T03:30:07;1.85;;;1.08;;
76167;SDS011;64927;48.214;16.378;2024-02-14T03:32:33;1.10;;;1.00;;
76167;SDS011;64927;48.214;16.378;2024-02-14T03:34:59;2.45;;;1.10;;
76167;SDS011;64927;48.214;16.378;2024-02-14T03:37:26;1.60;;;1.15;;
76167;SDS011;64927;48.214;16.378;2024-02-14T03:39:51;0.80;;;0.68;;
76167;SDS011;64927;48.214;16.378;2024-02-14T03:42:17;0.93;;;0.90;;
76167;SDS011;64927;48.214;16.378;2024-02-14T03:44:44;2.20;;;1.50;;
76167;SDS011;64927;48.214;16.378;2024-02-14T03:47:12;3.20;;;1.17;;
76167;SDS011;64927;48.214;16.378;2024-02-14T03:49:43;1.90;;;1.08;;
76167;SDS011;64927;48.214;16.378;2024-02-14T03:52:08;1.52;;;1.08;;
76167;SDS011;64927;48.214;16.378;2024-02-14T03:54:35;2.78;;;2.05;;
76167;SDS011;64927;48.214;16.378;2024-02-14T03:57:02;6.00;;;1.63;;
76167;SDS011;64927;48.214;16.378;2024-02-14T03:59:35;1.55;;;1.10;;
76167;SDS011;64927;48.214;16.378;2024-02-14T04:02:01;3.67;;;1.23;;
76167;SDS011;64927;48.214;16.378;2024-02-14T04:04:27;1.80;;;1.20;;
76167;SDS011;64927;48.214;16.378;2024-02-14T04:06:52;4.28;;;1.63;;
76167;SDS011;64927;48.214;16.378;2024-02-14T04:09:18;0.98;;;0.88;;
76167;SDS011;64927;48.214;16.378;2024-02-14T04:11:44;1.67;;;1.23;;
76167;SDS011;64927;48.214;16.378;2024-02-14T04:14:09;3.25;;;1.30;;
76167;SDS011;64927;48.214;16.378;2024-02-14T04:16:35;3.67;;;1.38;;
76167;SDS011;64927;48.214;16.378;2024-02-14T04:19:01;3.13;;;1.40;;
76167;SDS011;64927;48.214;16.378;2024-02-14T04:21:30;2.85;;;1.50;;
76167;SDS011;64927;48.214;16.378;2024-02-14T04:23:56;2.53;;;1.27;;
76167;SDS011;64927;48.214;16.378;2024-02-14T04:26:22;2.38;;;1.25;;
76167;SDS011;64927;48.214;16.378;2024-02-14T04:28:47;5.13;;;1.30;;
76167;SDS011;64927;48.214;16.378;2024-02-14T04:31:15;2.33;;;1.20;;
76167;SDS011;64927;48.214;16.378;2024-02-14T04:33:41;3.50;;;1.58;;
76167;SDS011;64927;48.214;16.378;2024-02-14T04:36:06;1.60;;;1.15;;
76167;SDS011;64927;48.214;16.378;2024-02-14T04:38:32;1.88;;;1.27;;
76167;SDS011;64927;48.214;16.378;2024-02-14T04:40:58;5.82;;;1.63;;
76167;SDS011;64927;48.214;16.378;2024-02-14T04:43:25;6.85;;;1.33;;
76167;SDS011;64927;48.214;16.378;2024-02-14T04:45:51;2.20;;;1.42;;
76167;SDS011;64927;48.214;16.378;2024-02-14T04:48:18;2.90;;;1.50;;
76167;SDS011;64927;48.214;16.378;2024-02-14T04:50:44;2.38;;;1.33;;
76167;SDS011;64927;48.214;16.378;2024-02-14T04:53:10;5.55;;;1.65;;
76167;SDS011;64927;48.214;16.378;2024-02-14T04:55:35;2.30;;;1.30;;
76167;SDS011;64927;48.214;16.378;2024-02-14T04:58:01;4.15;;;1.70;;
76167;SDS011;64927;48.214;16.378;2024-02-14T05:00:27;2.38;;;1.50;;
76167;SDS011;64927;48.214;16.378;2024-02-14T05:02:53;4.10;;;1.67;;
76167;SDS011;64927;48.214;16.378;2024-02-14T05:05:19;4.38;;;1.65;;
76167;SDS011;64927;48.214;16.378;2024-02-14T05:07:49;2.85;;;1.48;;
76167;SDS011;64927;48.214;16.378;2024-02-14T05:10:14;5.38;;;2.05;;
76167;SDS011;64927;48.214;16.378;2024-02-14T05:12:40;3.03;;;1.63;;
76167;SDS011;64927;48.214;16.378;2024-02-14T05:15:06;2.08;;;1.85;;
76167;SDS011;64927;48.214;16.378;2024-02-14T05:17:32;1.98;;;1.33;;
76167;SDS011;64927;48.214;16.378;2024-02-14T05:19:58;1.48;;;1.23;;
76167;SDS011;64927;48.214;16.378;2024-02-14T05:22:28;2.58;;;1.25;;
76167;SDS011;64927;48.214;16.378;2024-02-14T05:24:53;2.45;;;1.20;;
76167;SDS011;64927;48.214;16.378;2024-02-14T05:27:19;2.53;;;1.50;;
76167;SDS011;64927;48.214;16.378;2024-02-14T05:29:45;2.65;;;1.27;;
76167;SDS011;64927;48.214;16.378;2024-02-14T05:32:10;3.40;;;1.70;;
76167;SDS011;64927;48.214;16.378;2024-02-14T05:34:36;2.60;;;1.38;;
76167;SDS011;64927;48.214;16.378;2024-02-14T05:37:06;2.35;;;1.40;;
76167;SDS011;64927;48.214;16.378;2024-02-14T05:39:33;3.25;;;1.38;;
76167;SDS011;64927;48.214;16.378;2024-02-14T05:42:01;2.33;;;1.45;;
76167;SDS011;64927;48.214;16.378;2024-02-14T05:44:27;2.80;;;1.52;;
76167;SDS011;64927;48.214;16.378;2024-02-14T05:46:55;3.08;;;2.13;;
76167;SDS011;64927;48.214;16.378;2024-02-14T05:49:21;2.22;;;1.52;;
76167;SDS011;64927;48.214;16.378;2024-02-14T05:51:47;2.78;;;1.70;;
76167;SDS011;64927;48.214;16.378;2024-02-14T05:54:16;3.83;;;2.15;;
76167;SDS011;64927;48.214;16.378;2024-02-14T05:56:45;4.25;;;2.05;;
76167;SDS011;64927;48.214;16.378;2024-02-14T05:59:16;2.15;;;1.55;;
76167;SDS011;64927;48.214;16.378;2024-02-14T06:01:41;1.95;;;1.77;;
76167;SDS011;64927;48.214;16.378;2024-02-14T06:04:07;4.38;;;1.90;;
76167;SDS011;64927;48.214;16.378;2024-02-14T06:06:34;5.00;;;2.35;;
76167;SDS011;64927;48.214;16.378;2024-02-14T06:09:00;3.40;;;2.05;;
76167;SDS011;64927;48.214;16.378;2024-02-14T06:11:26;3.30;;;2.00;;
76167;SDS011;64927;48.214;16.378;2024-02-14T06:13:51;4.32;;;2.17;;
76167;SDS011;64927;48.214;16.378;2024-02-14T06:16:17;2.55;;;1.80;;
76167;SDS011;64927;48.214;16.378;2024-02-14T06:18:42;3.10;;;2.08;;
76167;SDS011;64927;48.214;16.378;2024-02-14T06:21:08;1.73;;;1.52;;
76167;SDS011;64927;48.214;16.378;2024-02-14T06:23:34;4.18;;;2.60;;
76167;SDS011;64927;48.214;16.378;2024-02-14T06:26:02;3.08;;;2.25;;
76167;SDS011;64927;48.214;16.378;2024-02-14T06:28:29;3.58;;;2.40;;
76167;SDS011;64927;48.214;16.378;2024-02-14T06:30:54;7.03;;;2.72;;
76167;SDS011;64927;48.214;16.378;2024-02-14T06:33:20;3.63;;;1.95;;
76167;SDS011;64927;48.214;16.378;2024-02-14T06:35:46;3.83;;;2.67;;
76167;SDS011;64927;48.214;16.378;2024-02-14T06:38:11;4.53;;;2.90;;
76167;SDS011;64927;48.214;16.378;2024-02-14T06:40:37;2.78;;;2.38;;
76167;SDS011;64927;48.214;16.378;2024-02-14T06:43:03;3.15;;;2.42;;
76167;SDS011;64927;48.214;16.378;2024-02-14T06:45:29;5.97;;;2.35;;
76167;SDS011;64927;48.214;16.378;2024-02-14T06:47:55;4.18;;;2.40;;
76167;SDS011;64927;48.214;16.378;2024-02-14T06:50:23;7.05;;;3.40;;
76167;SDS011;64927;48.214;16.378;2024-02-14T06:52:53;3.45;;;2.53;;
76167;SDS011;64927;48.214;16.378;2024-02-14T06:55:19;6.30;;;3.45;;
76167;SDS011;64927;48.214;16.378;2024-02-14T06:57:44;7.82;;;3.20;;
76167;SDS011;64927;48.214;16.378;2024-02-14T07:00:10;6.65;;;3.38;;
76167;SDS011;64927;48.214;16.378;2024-02-14T07:02:36;6.93;;;3.20;;
76167;SDS011;64927;48.214;16.378;2024-02-14T07:05:02;6.25;;;3.00;;
76167;SDS011;64927;48.214;16.378;2024-02-14T07:07:28;9.65;;;3.40;;
76167;SDS011;64927;48.214;16.378;2024-02-14T07:09:53;7.43;;;3.58;;
76167;SDS011;64927;48.214;16.378;2024-02-14T07:12:19;2.33;;;2.13;;
76167;SDS011;64927;48.214;16.378;2024-02-14T07:14:46;5.97;;;2.85;;
76167;SDS011;64927;48.214;16.378;2024-02-14T07:17:14;4.75;;;2.88;;
76167;SDS011;64927;48.214;16.378;2024-02-14T07:19:39;7.28;;;3.35;;
76167;SDS011;64927;48.214;16.378;2024-02-14T07:22:07;5.47;;;2.70;;
76167;SDS011;64927;48.214;16.378;2024-02-14T07:24:34;4.93;;;2.85;;
76167;SDS011;64927;48.214;16.378;2024-02-14T07:27:00;5.10;;;2.25;;
76167;SDS011;64927;48.214;16.378;2024-02-14T07:29:25;6.60;;;3.40;;
76167;SDS011;64927;48.214;16.378;2024-02-14T07:31:52;9.82;;;3.00;;
76167;SDS011;64927;48.214;16.378;2024-02-14T07:34:17;4.53;;;2.40;;
76167;SDS011;64927;48.214;16.378;2024-02-14T07:36:46;6.35;;;3.28;;
76167;SDS011;64927;48.214;16.378;2024-02-14T07:39:12;5.13;;;2.92;;
76167;SDS011;64927;48.214;16.378;2024-02-14T07:41:42;4.45;;;2.60;;
76167;SDS011;64927;48.214;16.378;2024-02-14T07:44:08;5.85;;;2.95;;
76167;SDS011;64927;48.214;16.378;2024-02-14T07:46:33;5.90;;;3.25;;
76167;SDS011;64927;48.214;16.378;2024-02-14T07:48:59;5.93;;;2.85;;
76167;SDS011;64927;48.214;16.378;2024-02-14T07:51:24;3.90;;;2.20;;
76167;SDS011;64927;48.214;16.378;2024-02-14T07:53:50;4.22;;;3.08;;
76167;SDS011;64927;48.214;16.378;2024-02-14T07:56:16;3.38;;;2.75;;
76167;SDS011;64927;48.214;16.378;2024-02-14T07:58:43;11.98;;;3.45;;
76167;SDS011;64927;48.214;16.378;2024-02-14T08:01:09;3.08;;;2.60;;
76167;SDS011;64927;48.214;16.378;2024-02-14T08:03:34;4.35;;;3.08;;
76167;SDS011;64927;48.214;16.378;2024-02-14T08:06:00;6.53;;;3.30;;
76167;SDS011;64927;48.214;16.378;2024-02-14T08:08:26;5.05;;;2.47;;
76167;SDS011;64927;48.214;16.378;2024-02-14T08:10:54;5.63;;;3.22;;
76167;SDS011;64927;48.214;16.378;2024-02-14T08:13:20;4.85;;;2.72;;
76167;SDS011;64927;48.214;16.378;2024-02-14T08:15:45;3.92;;;2.40;;
76167;SDS011;64927;48.214;16.378;2024-02-14T08:18:11;7.20;;;2.38;;
76167;SDS011;64927;48.214;16.378;2024-02-14T08:20:37;5.82;;;3.05;;
76167;SDS011;64927;48.214;16.378;2024-02-14T08:23:03;9.98;;;2.13;;
76167;SDS011;64927;48.214;16.378;2024-02-14T08:25:29;6.72;;;2.33;;
76167;SDS011;64927;48.214;16.378;2024-02-14T08:27:55;4.70;;;1.80;;
76167;SDS011;64927;48.214;16.378;2024-02-14T08:30:21;4.82;;;1.58;;
76167;SDS011;64927;48.214;16.378;2024-02-14T08:32:47;8.52;;;2.30;;
76167;SDS011;64927;48.214;16.378;2024-02-14T08:35:12;2.17;;;1.30;;
76167;SDS011;64927;48.214;16.378;2024-02-14T08:37:39;2.47;;;1.50;;
76167;SDS011;64927;48.214;16.378;2024-02-14T08:40:05;4.65;;;2.33;;
76167;SDS011;64927;48.214;16.378;2024-02-14T08:42:33;6.20;;;1.55;;
76167;SDS011;64927;48.214;16.378;2024-02-14T08:44:59;2.22;;;1.50;;
76167;SDS011;64927;48.214;16.378;2024-02-14T08:47:25;2.97;;;1.70;;
76167;SDS011;64927;48.214;16.378;2024-02-14T08:49:51;2.42;;;1.80;;
76167;SDS011;64927;48.214;16.378;2024-02-14T08:52:17;1.23;;;1.08;;
76167;SDS011;64927;48.214;16.378;2024-02-14T08:54:43;5.95;;;2.08;;
76167;SDS011;64927;48.214;16.378;2024-02-14T08:57:09;5.80;;;1.70;;
76167;SDS011;64927;48.214;16.378;2024-02-14T08:59:35;6.85;;;2.50;;
76167;SDS011;64927;48.214;16.378;2024-02-14T09:02:01;4.35;;;1.70;;
76167;SDS011;64927;48.214;16.378;2024-02-14T09:04:27;6.45;;;1.70;;
76167;SDS011;64927;48.214;16.378;2024-02-14T09:06:53;2.92;;;1.58;;
76167;SDS011;64927;48.214;16.378;2024-02-14T09:09:18;3.47;;;1.70;;
76167;SDS011;64927;48.214;16.378;2024-02-14T09:11:44;5.18;;;1.60;;
76167;SDS011;64927;48.214;16.378;2024-02-14T09:14:13;13.93;;;2.42;;
76167;SDS011;64927;48.214;16.378;2024-02-14T09:16:38;5.28;;;1.63;;
76167;SDS011;64927;48.214;16.378;2024-02-14T09:19:04;3.88;;;1.70;;
76167;SDS011;64927;48.214;16.378;2024-02-14T09:21:32;4.15;;;1.90;;
76167;SDS011;64927;48.214;16.378;2024-02-14T09:24:00;7.43;;;2.92;;
76167;SDS011;64927;48.214;16.378;2024-02-14T09:26:26;4.80;;;2.10;;
76167;SDS011;64927;48.214;16.378;2024-02-14T09:28:52;4.50;;;2.55;;
76167;SDS011;64927;48.214;16.378;2024-02-14T09:31:18;2.88;;;1.60;;
76167;SDS011;64927;48.214;16.378;2024-02-14T09:33:45;1.50;;;1.20;;
76167;SDS011;64927;48.214;16.378;2024-02-14T09:36:14;2.05;;;1.30;;
76167;SDS011;64927;48.214;16.378;2024-02-14T09:38:42;4.90;;;1.58;;
76167;SDS011;64927;48.214;16.378;2024-02-14T09:44:01;2.08;;;1.33;;
76167;SDS011;64927;48.214;16.378;2024-02-14T09:46:28;4.82;;;2.05;;
76167;SDS011;64927;48.214;16.378;2024-02-14T09:48:55;2.78;;;1.45;;
76167;SDS011;64927;48.214;16.378;2024-02-14T09:51:24;5.25;;;1.70;;
76167;SDS011;64927;48.214;16.378;2024-02-14T09:53:50;4.43;;;1.70;;
76167;SDS011;64927;48.214;16.378;2024-02-14T09:56:19;2.70;;;1.70;;
76167;SDS011;64927;48.214;16.378;2024-02-14T09:58:52;1.98;;;0.95;;
76167;SDS011;64927;48.214;16.378;2024-02-14T10:01:22;8.25;;;1.10;;
76167;SDS011;64927;48.214;16.378;2024-02-14T10:03:52;2.13;;;0.93;;
76167;SDS011;64927;48.214;16.378;2024-02-14T10:06:18;4.50;;;0.90;;
76167;SDS011;64927;48.214;16.378;2024-02-14T10:08:48;2.35;;;0.80;;
76167;SDS011;64927;48.214;16.378;2024-02-14T10:11:18;2.25;;;1.00;;
76167;SDS011;64927;48.214;16.378;2024-02-14T10:13:47;3.47;;;1.38;;
76167;SDS011;64927;48.214;16.378;2024-02-14T10:16:14;2.35;;;1.25;;
76167;SDS011;64927;48.214;16.378;2024-02-14T10:18:39;1.08;;;0.80;;
76167;SDS011;64927;48.214;16.378;2024-02-14T10:21:05;4.63;;;1.02;;
76167;SDS011;64927;48.214;16.378;2024-02-14T10:23:33;1.10;;;0.77;;
76167;SDS011;64927;48.214;16.378;2024-02-14T10:25:59;1.15;;;0.90;;
76167;SDS011;64927;48.214;16.378;2024-02-14T10:28:25;2.17;;;1.17;;
76167;SDS011;64927;48.214;16.378;2024-02-14T10:30:50;1.83;;;1.00;;
76167;SDS011;64927;48.214;16.378;2024-02-14T10:33:19;1.55;;;1.00;;
76167;SDS011;64927;48.214;16.378;2024-02-14T10:35:45;1.35;;;0.70;;
76167;SDS011;64927;48.214;16.378;2024-02-14T10:38:12;1.55;;;0.88;;
76167;SDS011;64927;48.214;16.378;2024-02-14T10:40:41;0.85;;;0.60;;
76167;SDS011;64927;48.214;16.378;2024-02-14T10:43:14;5.18;;;1.40;;
76167;SDS011;64927;48.214;16.378;2024-02-14T10:45:40;2.90;;;0.77;;
76167;SDS011;64927;48.214;16.378;2024-02-14T10:48:10;1.20;;;0.70;;
76167;SDS011;64927;48.214;16.378;2024-02-14T10:50:37;1.33;;;0.65;;
76167;SDS011;64927;48.214;16.378;2024-02-14T10:53:11;1.58;;;0.60;;
76167;SDS011;64927;48.214;16.378;2024-02-14T10:55:38;1.25;;;0.80;;
76167;SDS011;64927;48.214;16.378;2024-02-14T10:58:07;1.63;;;0.60;;
76167;SDS011;64927;48.214;16.378;2024-02-14T11:00:44;0.52;;;0.50;;
76167;SDS011;64927;48.214;16.378;2024-02-14T11:03:14;1.55;;;0.85;;
76167;SDS011;64927;48.214;16.378;2024-02-14T11:05:46;1.67;;;0.75;;
76167;SDS011;64927;48.214;16.378;2024-02-14T11:08:22;2.67;;;1.13;;
76167;SDS011;64927;48.214;16.378;2024-02-14T11:10:56;2.20;;;0.80;;
76167;SDS011;64927;48.214;16.378;2024-02-14T11:13:27;0.63;;;0.45;;
76167;SDS011;64927;48.214;16.378;2024-02-14T11:16:00;2.33;;;0.80;;
76167;SDS011;64927;48.214;16.378;2024-02-14T11:18:29;2.90;;;0.77;;
76167;SDS011;64927;48.214;16.378;2024-02-14T11:21:03;2.05;;;0.82;;
76167;SDS011;64927;48.214;16.378;2024-02-14T11:23:37;1.05;;;0.88;;
76167;SDS011;64927;48.214;16.378;2024-02-14T11:26:03;1.20;;;0.93;;
76167;SDS011;64927;48.214;16.378;2024-02-14T11:28:30;2.78;;;0.60;;
76167;SDS011;64927;48.214;16.378;2024-02-14T11:31:02;0.82;;;0.60;;
76167;SDS011;64927;48.214;16.378;2024-02-14T11:33:30;1.38;;;0.70;;
76167;SDS011;64927;48.214;16.378;2024-02-14T11:35:58;2.63;;;0.77;;
76167;SDS011;64927;48.214;16.378;2024-02-14T11:38:34;1.30;;;0.70;;
76167;SDS011;64927;48.214;16.378;2024-02-14T11:40:59;1.25;;;0.98;;
76167;SDS011;64927;48.214;16.378;2024-02-14T11:43:25;6.20;;;1.08;;
76167;SDS011;64927;48.214;16.378;2024-02-14T11:45:56;2.65;;;0.85;;
76167;SDS011;64927;48.214;16.378;2024-02-14T11:48:21;1.73;;;0.77;;
76167;SDS011;64927;48.214;16.378;2024-02-14T11:50:49;3.38;;;1.17;;
76167;SDS011;64927;48.214;16.378;2024-02-14T11:53:21;1.88;;;0.70;;
76167;SDS011;64927;48.214;16.378;2024-02-14T11:55:46;1.83;;;1.08;;
76167;SDS011;64927;48.214;16.378;2024-02-14T11:58:15;0.95;;;0.70;;
76167;SDS011;64927;48.214;16.378;2024-02-14T12:00:44;3.83;;;1.60;;
76167;SDS011;64927;48.214;16.378;2024-02-14T12:03:17;1.30;;;0.80;;
76167;SDS011;64927;48.214;16.378;2024-02-14T12:05:45;1.65;;;0.68;;
76167;SDS011;64927;48.214;16.378;2024-02-14T12:08:12;2.10;;;0.85;;
76167;SDS011;64927;48.214;16.378;2024-02-14T12:10:38;4.28;;;1.10;;
76167;SDS011;64927;48.214;16.378;2024-02-14T12:13:12;2.03;;;1.05;;
76167;SDS011;64927;48.214;16.378;2024-02-14T12:18:11;2.35;;;0.70;;
76167;SDS011;64927;48.214;16.378;2024-02-14T12:20:41;1.17;;;0.60;;
76167;SDS011;64927;48.214;16.378;2024-02-14T12:23:08;4.13;;;0.60;;
76167;SDS011;64927;48.214;16.378;2024-02-14T12:25:39;1.95;;;0.60;;
76167;SDS011;64927;48.214;16.378;2024-02-14T12:28:07;2.05;;;0.50;;
76167;SDS011;64927;48.214;16.378;2024-02-14T12:30:42;1.15;;;0.40;;
76167;SDS011;64927;48.214;16.378;2024-02-14T12:33:14;1.65;;;0.80;;
76167;SDS011;64927;48.214;16.378;2024-02-14T12:35:48;4.93;;;1.00;;
76167;SDS011;64927;48.214;16.378;2024-02-14T12:38:18;0.40;;;0.40;;
76167;SDS011;64927;48.214;16.378;2024-02-14T12:40:45;3.28;;;1.30;;
76167;SDS011;64927;48.214;16.378;2024-02-14T12:43:11;7.88;;;3.33;;
76167;SDS011;64927;48.214;16.378;2024-02-14T12:45:38;1.45;;;0.80;;
76167;SDS011;64927;48.214;16.378;2024-02-14T12:48:05;1.17;;;0.43;;
76167;SDS011;64927;48.214;16.378;2024-02-14T12:50:37;3.20;;;0.57;;
76167;SDS011;64927;48.214;16.378;2024-02-14T12:53:13;1.15;;;0.50;;
76167;SDS011;64927;48.214;16.378;2024-02-14T12:55:39;0.82;;;0.68;;
76167;SDS011;64927;48.214;16.378;2024-02-14T12:58:26;0.82;;;0.22;;
76167;SDS011;64927;48.214;16.378;2024-02-14T13:00:56;1.10;;;0.35;;
76167;SDS011;64927;48.214;16.378;2024-02-14T13:03:23;0.28;;;0.28;;
76167;SDS011;64927;48.214;16.378;2024-02-14T13:05:52;1.17;;;0.50;;
76167;SDS011;64927;48.214;16.378;2024-02-14T13:08:19;0.38;;;0.38;;
76167;SDS011;64927;48.214;16.378;2024-02-14T13:10:45;0.82;;;0.60;;
76167;SDS011;64927;48.214;16.378;2024-02-14T13:13:14;1.08;;;0.47;;
76167;SDS011;64927;48.214;16.378;2024-02-14T13:15:40;1.20;;;0.40;;
76167;SDS011;64927;48.214;16.378;2024-02-14T13:18:07;1.55;;;0.80;;
76167;SDS011;64927;48.214;16.378;2024-02-14T13:20:33;1.27;;;0.70;;
76167;SDS011;64927;48.214;16.378;2024-02-14T13:22:59;2.78;;;0.52;;
76167;SDS011;64927;48.214;16.378;2024-02-14T13:25:25;0.90;;;0.70;;
76167;SDS011;64927;48.214;16.378;2024-02-14T13:27:53;1.23;;;0.93;;
76167;SDS011;64927;48.214;16.378;2024-02-14T13:30:26;3.05;;;0.63;;
76167;SDS011;64927;48.214;16.378;2024-02-14T13:32:51;5.78;;;0.70;;
76167;SDS011;64927;48.214;16.378;2024-02-14T13:35:17;0.90;;;0.60;;
76167;SDS011;64927;48.214;16.378;2024-02-14T13:37:43;0.50;;;0.40;;
76167;SDS011;64927;48.214;16.378;2024-02-14T13:40:10;0.50;;;0.40;;
76167;SDS011;64927;48.214;16.378;2024-02-14T13:42:39;1.60;;;0.63;;
76167;SDS011;64927;48.214;16.378;2024-02-14T13:45:05;2.60;;;0.20;;
76167;SDS011;64927;48.214;16.378;2024-02-14T13:47:35;0.75;;;0.60;;
76167;SDS011;64927;48.214;16.378;2024-02-14T13:50:07;1.13;;;0.43;;
76167;SDS011;64927;48.214;16.378;2024-02-14T13:52:34;1.60;;;0.57;;
76167;SDS011;64927;48.214;16.378;2024-02-14T13:55:03;1.05;;;0.60;;
76167;SDS011;64927;48.214;16.378;2024-02-14T13:57:39;0.57;;;0.47;;
76167;SDS011;64927;48.214;16.378;2024-02-14T14:00:07;3.33;;;0.60;;
76167;SDS011;64927;48.214;16.378;2024-02-14T14:02:41;4.55;;;1.67;;
76167;SDS011;64927;48.214;16.378;2024-02-14T14:05:11;3.10;;;0.63;;
76167;SDS011;64927;48.214;16.378;2024-02-14T14:07:40;0.55;;;0.40;;
76167;SDS011;64927;48.214;16.378;2024-02-14T14:10:07;1.00;;;0.40;;
76167;SDS011;64927;48.214;16.378;2024-02-14T14:12:37;4.53;;;0.60;;
76167;SDS011;64927;48.214;16.378;2024-02-14T14:15:04;1.35;;;0.85;;
76167;SDS011;64927;48.214;16.378;2024-02-14T14:17:30;2.17;;;0.47;;
76167;SDS011;64927;48.214;16.378;2024-02-14T14:19:56;1.98;;;0.40;;
76167;SDS011;64927;48.214;16.378;2024-02-14T14:22:22;1.38;;;0.80;;
76167;SDS011;64927;48.214;16.378;2024-02-14T14:24:47;0.98;;;0.70;;
76167;SDS011;64927;48.214;16.378;2024-02-14T14:27:13;1.80;;;0.40;;
76167;SDS011;64927;48.214;16.378;2024-02-14T14:29:42;0.40;;;0.40;;
76167;SDS011;64927;48.214;16.378;2024-02-14T14:32:08;0.95;;;0.50;;
76167;SDS011;64927;48.214;16.378;2024-02-14T14:34:34;1.85;;;0.80;;
76167;SDS011;64927;48.214;16.378;2024-02-14T14:37:00;1.50;;;0.65;;
76167;SDS011;64927;48.214;16.378;2024-02-14T14:39:26;1.20;;;0.77;;